createdAt,value
2023-04-21T00:04:33.292Z,20.83
2023-04-21T00:09:39.764Z,22.30
2023-04-21T00:14:45.749Z,20.27
2023-04-21T00:19:51.946Z,18.85
2023-04-21T00:24:53.486Z,20.17
2023-04-21T00:29:55.080Z,19.48
2023-04-21T00:34:57.844Z,19.27
2023-04-21T00:39:59.502Z,18.40
2023-04-21T00:45:01.141Z,22.45
2023-04-21T00:50:04.321Z,20.20
2023-04-21T00:55:07.107Z,20.55
2023-04-21T01:00:10.584Z,22.17
2023-04-21T01:05:12.765Z,20.73
2023-04-21T01:10:14.475Z,21.02
2023-04-21T01:15:17.499Z,22.60
2023-04-21T01:20:19.046Z,22.38
2023-04-21T01:25:28.626Z,20.98
2023-04-21T01:30:39.819Z,20.65
2023-04-21T01:35:51.899Z,19.42
2023-04-21T01:40:55.857Z,19.88
2023-04-21T01:45:57.495Z,19.75
2023-04-21T01:51:04.014Z,19.15
2023-04-21T01:56:05.842Z,21.15
2023-04-21T02:01:12.446Z,20.60
2023-04-21T02:06:14.147Z,22.85
2023-04-21T02:11:15.684Z,22.35
2023-04-21T02:16:26.293Z,18.20
2023-04-21T02:21:28.531Z,20.65
2023-04-21T02:26:33.928Z,22.02
2023-04-21T02:31:46.106Z,17.38
2023-04-21T02:36:56.081Z,22.08
2023-04-21T02:42:04.339Z,23.70
2023-04-21T02:47:05.957Z,23.45
2023-04-21T02:52:10.237Z,26.08
2023-04-21T02:57:11.809Z,24.05
2023-04-21T03:02:14.564Z,22.08
2023-04-21T03:07:21.974Z,23.63
2023-04-21T03:12:23.536Z,22.75
2023-04-21T03:17:25.393Z,25.20
2023-04-21T03:22:27.909Z,24.52
2023-04-21T03:27:29.418Z,23.20
2023-04-21T03:32:33.973Z,25.42
2023-04-21T03:37:35.621Z,20.60
2023-04-21T03:42:39.955Z,24.33
2023-04-21T03:47:41.571Z,27.20
2023-04-21T03:52:43.143Z,24.98
2023-04-21T03:57:44.683Z,27.17
2023-04-21T04:02:46.351Z,25.52
2023-04-21T04:07:51.953Z,24.45
2023-04-21T04:12:55.172Z,24.90
2023-04-21T04:17:56.759Z,25.75
2023-04-21T04:22:58.353Z,24.02
2023-04-21T04:27:59.953Z,25.13
2023-04-21T04:33:04.110Z,24.88
2023-04-21T04:38:07.572Z,25.60
2023-04-21T04:43:10.589Z,27.63
2023-04-21T04:48:12.120Z,21.58
2023-04-21T04:53:13.607Z,24.42
2023-04-21T04:58:15.210Z,24.60
2023-04-21T05:03:16.998Z,26.77
2023-04-21T05:08:18.621Z,22.58
2023-04-21T05:13:20.322Z,25.00
2023-04-21T05:18:23.303Z,22.27
2023-04-21T05:23:24.913Z,20.35
2023-04-21T05:28:30.063Z,21.83
2023-04-21T05:33:32.013Z,20.52
2023-04-21T05:38:33.670Z,19.30
2023-04-21T05:43:40.104Z,23.98
2023-04-21T05:48:41.705Z,20.77
2023-04-21T05:53:45.202Z,26.77
2023-04-21T05:58:46.915Z,21.85
2023-04-21T06:03:51.400Z,25.20
2023-04-21T06:08:52.994Z,20.30
2023-04-21T06:13:58.227Z,21.48
2023-04-21T06:19:00.277Z,19.13
2023-04-21T06:24:01.950Z,18.13
2023-04-21T06:29:04.170Z,19.40
2023-04-21T06:34:05.702Z,17.20
2023-04-21T06:39:07.221Z,14.65
2023-04-21T06:44:08.708Z,12.43
2023-04-21T06:49:11.183Z,10.73
2023-04-21T06:54:12.748Z,11.27
2023-04-21T06:59:14.242Z,9.93
2023-04-21T07:04:16.019Z,9.95
2023-04-21T07:09:33.731Z,8.10
2023-04-21T07:14:40.027Z,8.70
2023-04-21T07:19:41.664Z,8.82
2023-04-21T07:24:43.238Z,10.98
2023-04-21T07:29:45.079Z,11.77
2023-04-21T07:34:48.311Z,11.75
2023-04-21T07:39:49.940Z,10.05
2023-04-21T07:44:51.559Z,10.13
2023-04-21T07:49:53.083Z,10.65
2023-04-21T07:54:54.681Z,7.65
2023-04-21T07:59:56.187Z,5.85
2023-04-21T08:04:57.803Z,5.07
2023-04-21T08:10:00.251Z,4.65
2023-04-21T08:15:05.887Z,5.85
2023-04-21T08:20:08.237Z,4.72
2023-04-21T08:25:09.901Z,4.97
2023-04-21T08:30:11.986Z,5.25
2023-04-21T08:35:13.533Z,4.80
2023-04-21T08:40:15.167Z,4.50
2023-04-21T08:45:17.131Z,7.57
2023-04-21T08:50:19.142Z,6.65
2023-04-21T08:55:24.393Z,5.60
2023-04-21T09:00:28.010Z,6.00
2023-04-21T09:05:33.893Z,5.72
2023-04-21T09:10:46.335Z,4.60
2023-04-21T09:15:52.194Z,5.20
2023-04-21T09:21:08.949Z,6.28
2023-04-21T09:26:14.114Z,5.93
2023-04-21T09:31:29.206Z,5.47
2023-04-21T09:36:31.988Z,5.35
2023-04-21T09:41:33.888Z,6.18
2023-04-21T09:46:37.139Z,5.07
2023-04-21T09:52:05.982Z,6.53
2023-04-21T09:57:04.372Z,8.93
2023-04-21T10:02:07.600Z,6.47
2023-04-21T10:07:10.221Z,5.80
2023-04-21T10:12:13.966Z,6.22
2023-04-21T10:17:17.859Z,5.32
2023-04-21T10:22:30.620Z,6.32
2023-04-21T10:27:45.486Z,7.28
2023-04-21T10:32:47.297Z,6.00
2023-04-21T10:37:52.065Z,5.60
2023-04-21T10:42:53.779Z,7.43
2023-04-21T10:47:55.445Z,6.30
2023-04-21T10:53:11.245Z,4.72
2023-04-21T10:58:16.664Z,3.90
2023-04-21T11:03:18.487Z,4.18
2023-04-21T11:08:20.297Z,5.10
2023-04-21T11:13:27.338Z,3.95
2023-04-21T11:18:33.803Z,7.28
2023-04-21T11:23:35.759Z,5.13
2023-04-21T11:28:37.310Z,6.13
2023-04-21T11:33:39.709Z,6.78
2023-04-21T11:38:41.864Z,5.82
2023-04-21T11:43:46.168Z,6.45
2023-04-21T11:49:07.602Z,8.15
2023-04-21T11:54:11.785Z,7.95
2023-04-21T11:59:16.672Z,6.82
2023-04-21T12:04:23.540Z,8.35
2023-04-21T12:09:26.015Z,8.40
2023-04-21T12:14:27.561Z,8.15
2023-04-21T12:19:42.229Z,9.70
2023-04-21T12:24:44.620Z,8.27
2023-04-21T12:29:46.139Z,7.38
2023-04-21T12:34:47.638Z,8.43
2023-04-21T12:39:49.236Z,9.57
2023-04-21T12:44:50.769Z,8.27
2023-04-21T12:49:52.309Z,8.52
2023-04-21T12:54:54.002Z,8.60
2023-04-21T12:59:56.001Z,9.57
2023-04-21T13:04:57.528Z,8.98
2023-04-21T13:09:59.118Z,10.05
2023-04-21T13:15:00.657Z,10.40
2023-04-21T13:20:02.350Z,11.20
2023-04-21T13:25:04.565Z,10.20
2023-04-21T13:30:08.686Z,8.88
2023-04-21T13:35:10.754Z,9.20
2023-04-21T13:40:12.257Z,9.10
2023-04-21T13:45:13.837Z,10.55
2023-04-21T13:50:16.272Z,8.30
2023-04-21T13:55:17.866Z,8.00
2023-04-21T14:00:19.702Z,6.97
2023-04-21T14:05:22.944Z,8.73
2023-04-21T14:10:24.686Z,7.40
2023-04-21T14:15:26.336Z,6.95
2023-04-21T14:20:28.306Z,6.20
2023-04-21T14:25:32.243Z,8.75
2023-04-21T14:30:36.099Z,6.53
2023-04-21T14:35:37.872Z,9.02
2023-04-21T14:40:39.478Z,6.85
2023-04-21T14:45:41.309Z,7.22
2023-04-21T14:50:43.033Z,5.75
2023-04-21T14:55:44.601Z,5.82
2023-04-21T15:00:46.326Z,7.75
2023-04-21T15:05:47.943Z,5.43
2023-04-21T15:10:49.635Z,3.17
2023-04-21T15:15:52.191Z,2.25
2023-04-21T15:20:53.704Z,3.70
2023-04-21T15:25:56.151Z,3.22
2023-04-21T15:30:57.701Z,1.98
2023-04-21T15:35:59.203Z,6.82
2023-04-21T15:41:01.656Z,2.92
2023-04-21T15:46:04.431Z,3.83
2023-04-21T15:51:06.383Z,4.00
2023-04-21T15:56:07.989Z,3.25
2023-04-21T16:01:09.934Z,2.35
2023-04-21T16:06:11.743Z,2.17
2023-04-21T16:11:13.453Z,2.70
2023-04-21T16:16:14.987Z,3.47
2023-04-21T16:21:16.532Z,2.83
2023-04-21T16:26:18.066Z,4.13
2023-04-21T16:31:22.391Z,8.10
2023-04-21T16:36:24.015Z,5.80
2023-04-21T16:41:25.592Z,4.47
2023-04-21T16:46:27.198Z,3.70
2023-04-21T16:51:28.808Z,3.92
2023-04-21T16:56:32.786Z,3.63
2023-04-21T17:01:34.457Z,1.90
2023-04-21T17:06:36.078Z,2.67
2023-04-21T17:11:39.945Z,4.38
2023-04-21T17:16:42.071Z,3.10
2023-04-21T17:21:43.732Z,2.05
2023-04-21T17:26:45.494Z,5.80
2023-04-21T17:31:52.438Z,5.30
2023-04-21T17:36:54.082Z,3.75
2023-04-21T17:41:55.662Z,2.80
2023-04-21T17:47:01.393Z,5.70
2023-04-21T17:52:05.941Z,5.68
2023-04-21T17:57:07.433Z,5.15
2023-04-21T18:02:09.116Z,4.28
2023-04-21T18:07:11.009Z,4.03
2023-04-21T18:12:12.488Z,3.10
2023-04-21T18:17:16.018Z,7.93
2023-04-21T18:22:18.855Z,6.30
2023-04-21T18:27:20.400Z,7.57
2023-04-21T18:32:21.959Z,7.65
2023-04-21T18:37:23.503Z,6.05
2023-04-21T18:42:26.323Z,4.45
2023-04-21T18:47:27.913Z,5.40
2023-04-21T18:52:29.404Z,5.55
2023-04-21T18:57:30.931Z,8.38
2023-04-21T19:02:32.896Z,7.72
2023-04-21T19:07:35.085Z,6.85
2023-04-21T19:12:36.983Z,7.20
2023-04-21T19:17:39.653Z,6.60
2023-04-21T19:22:42.009Z,6.95
2023-04-21T19:27:44.103Z,5.30
2023-04-21T19:32:45.725Z,6.35
2023-04-21T19:37:47.418Z,6.05
2023-04-21T19:42:48.937Z,4.57
2023-04-21T19:47:52.598Z,5.07
2023-04-21T19:52:54.184Z,4.82
2023-04-21T19:57:55.757Z,4.75
2023-04-21T20:02:57.387Z,4.50
2023-04-21T20:07:59.696Z,4.55
2023-04-21T20:13:01.229Z,4.28
2023-04-21T20:18:02.790Z,7.63
2023-04-21T20:23:04.429Z,5.38
2023-04-21T20:28:05.978Z,4.75
2023-04-21T20:33:07.582Z,5.40
2023-04-21T20:38:10.322Z,4.18
2023-04-21T20:43:12.297Z,4.00
2023-04-21T20:48:13.860Z,4.75
2023-04-21T20:53:15.383Z,4.05
2023-04-21T20:58:16.952Z,3.92
2023-04-21T21:03:20.360Z,5.90
2023-04-21T21:08:22.279Z,4.28
2023-04-21T21:13:25.671Z,4.13
2023-04-21T21:18:27.173Z,4.53
2023-04-21T21:23:28.979Z,5.45
2023-04-21T21:28:30.712Z,4.47
2023-04-21T21:33:33.310Z,5.18
2023-04-21T21:38:34.842Z,4.40
2023-04-21T21:43:36.359Z,5.28
2023-04-21T21:48:37.940Z,4.63
2023-04-21T21:53:39.460Z,5.68
2023-04-21T21:58:41.021Z,4.78
2023-04-21T22:03:42.887Z,4.47
2023-04-21T22:08:45.529Z,4.78
2023-04-21T22:13:47.185Z,7.72
2023-04-21T22:18:49.067Z,8.23
2023-04-21T22:23:50.607Z,4.97
2023-04-21T22:28:54.626Z,5.20
2023-04-21T22:33:56.295Z,6.70
2023-04-21T22:38:58.102Z,5.55
2023-04-21T22:43:59.618Z,4.60
2023-04-21T22:49:03.084Z,4.72
2023-04-21T22:54:04.668Z,4.22
2023-04-21T22:59:06.202Z,5.32
2023-04-21T23:04:08.308Z,4.35
2023-04-21T23:09:09.962Z,5.57
2023-04-21T23:14:11.470Z,5.82
2023-04-21T23:19:12.971Z,5.55
2023-04-21T23:24:14.546Z,5.93
2023-04-21T23:29:16.045Z,6.75
2023-04-21T23:34:17.559Z,4.60
2023-04-21T23:39:21.483Z,5.13
2023-04-21T23:44:23.046Z,5.50
2023-04-21T23:49:24.589Z,6.28
2023-04-21T23:54:28.209Z,5.43
2023-04-21T23:59:29.709Z,6.10
